Ana Sayfa
METAR-TAF:

METAR-TAF

Havaalanları :

Aberdeen, Maryland, Amerika Birleşik Devletleri

Enlem: 39-28N, Boylam: 076-10W, yükseklik: 18 m

Güncel hava durumu gözlemi

Rapor saat 20:58 UTC de 2 saat ve 35 dakika önce yapıldı.
Rüzgar kuzey/kuzeybatıdan 6 kt
Sıcaklık 30°C
Nem 38%
Basınç 1013 hPa
Görüş mesafesi: 16.1 km
9000 ft yükseklikte az bulutlu

METAR: KAPG 112058Z 34006KT 10SM FEW090 30/14 A2990 RMK AO2A LAST AO2A SLP128 T03000143 57009 $

Saat: 19:33 (23:33 UTC)


TAF: eksik

4.000'den fazla havaalanı için hava durumu gözlemleri ve tahminleri (METAR ve TAF raporları).

Kullanılabilir istasyonlar harita üzerinde sarı ve kırmızı noktalarla gösterilir.

İstasyonun adını görmek için fareyi noktanın üzerinde gezdirin.

Sonrasında hava gözlem ve tahminlerini görmek için tıklayın.

Haritayı değiştirmek için: yaklaştırmak için siyah artı işaretli yeşil düğmeye ve uzaklaştırmak için de eksi işaretli düğmeye hızla tıklayın; bitişik haritalar için yeşil okları kullanın.


METAR-TAF: